Time;durP1;ratioP1;P1;durP2;ratioP2;P2;SDS_P1;SDS_P2;PMS_P1;PMS_P2;Temp;Humidity;BMP_temperature;BMP_pressure;BME280_temperature;BME280_humidity;BME280_pressure;Samples;Min_cycle;Max_cycle;Signal;HPM_P1;HPM_P2
2022/05/20 00:02:52;;;;;;;6.50;3.70;;;;;;;5.71;74.77;98337.23;110178;1250;67807;-68
2022/05/20 00:05:23;;;;;;;6.10;3.20;;;;;;;5.72;74.40;98333.91;110183;1250;68557;-69
2022/05/20 00:07:52;;;;;;;4.20;2.90;;;;;;;5.73;71.79;98333.02;110121;1250;59251;-70
2022/05/20 00:10:22;;;;;;;5.30;3.30;;;;;;;5.73;72.34;98333.55;110206;1250;58886;-71
2022/05/20 00:12:52;;;;;;;6.40;4.00;;;;;;;5.74;73.06;98339.23;110144;1250;70581;-76
2022/05/20 00:15:24;;;;;;;5.70;3.70;;;;;;;5.74;75.29;98344.58;110057;1250;68620;-69
2022/05/20 00:17:55;;;;;;;5.50;2.60;;;;;;;5.74;76.49;98345.46;109953;1250;68608;-67
2022/05/20 00:20:27;;;;;;;4.90;2.40;;;;;;;5.71;74.36;98348.48;109967;1250;58898;-72
2022/05/20 00:22:57;;;;;;;5.60;3.00;;;;;;;5.69;75.36;98349.42;110206;1250;58901;-72
2022/05/20 00:25:46;;;;;;;4.40;3.10;;;;;;;5.66;77.94;98350.41;110255;1250;70768;-75
2022/05/20 00:28:28;;;;;;;5.60;3.40;;;;;;;5.62;77.31;98346.38;110146;1250;68743;-74
2022/05/20 00:31:06;;;;;;;4.70;3.00;;;;;;;5.58;76.60;98345.52;110180;1250;69427;-70
2022/05/20 00:33:37;;;;;;;5.50;3.30;;;;;;;5.54;76.23;98341.84;110222;1250;59303;-69
2022/05/20 00:36:08;;;;;;;8.00;4.40;;;;;;;5.52;77.26;98343.84;110150;1250;58938;-67
2022/05/20 00:38:39;;;;;;;6.20;4.20;;;;;;;5.52;77.96;98338.83;110259;1250;70854;-70
2022/05/20 00:41:09;;;;;;;;;;;;;;;5.52;77.26;98339.52;109972;1250;68555;-75
2022/05/20 00:43:47;;;;;;;5.70;4.10;;;;;;;5.50;77.71;98342.54;110189;1250;68611;-68
2022/05/20 00:46:22;;;;;;;8.90;5.10;;;;;;;5.49;78.29;98345.31;110184;1250;58926;-71
2022/05/20 00:49:07;;;;;;;8.90;4.50;;;;;;;5.49;77.64;98344.29;110018;1251;58957;-69
2022/05/20 00:51:42;;;;;;;6.60;4.20;;;;;;;5.47;77.78;98347.67;110159;1250;69928;-67
2022/05/20 00:54:21;;;;;;;7.10;4.30;;;;;;;5.45;76.01;98350.17;110008;1251;68650;-66
2022/05/20 00:57:03;;;;;;;6.80;5.20;;;;;;;5.42;78.76;98354.77;110165;1250;68632;-72
2022/05/20 00:59:36;;;;;;;9.20;5.70;;;;;;;5.40;79.18;98348.64;110174;1250;58894;-75
2022/05/20 01:02:14;;;;;;;10.00;5.80;;;;;;;5.37;78.81;98353.90;110215;1249;58811;-66
2022/05/20 01:05:03;;;;;;;8.80;5.40;;;;;;;5.36;79.24;98353.77;110200;1249;69996;-68
2022/05/20 01:07:39;;;;;;;7.80;5.80;;;;;;;5.35;79.79;98356.20;110141;1250;67839;-67
2022/05/20 01:10:10;;;;;;;11.20;6.00;;;;;;;5.35;79.71;98358.98;110140;1250;68633;-70
2022/05/20 01:12:41;;;;;;;8.60;6.00;;;;;;;5.35;79.34;98358.49;110179;1249;58888;-68
2022/05/20 01:15:10;;;;;;;;;;;;;;;5.34;79.70;98359.55;110239;1250;58917;-71
2022/05/20 01:17:41;;;;;;;10.40;6.30;;;;;;;5.33;80.40;98361.84;110192;1250;69926;-66
2022/05/20 01:20:18;;;;;;;8.00;5.20;;;;;;;5.32;79.93;98365.51;110183;1250;68603;-66
2022/05/20 01:22:54;;;;;;;7.70;5.10;;;;;;;5.29;78.51;98370.09;110123;1250;69417;-67
2022/05/20 01:25:25;;;;;;;8.10;5.20;;;;;;;5.23;78.16;98370.48;110147;1250;59571;-69
2022/05/20 01:27:55;;;;;;;7.20;4.10;;;;;;;5.17;79.14;98371.23;110167;1250;58866;-70
2022/05/20 01:30:28;;;;;;;7.30;4.70;;;;;;;5.13;77.43;98373.77;110157;1250;70298;-68
2022/05/20 01:33:01;;;;;;;5.90;3.40;;;;;;;5.08;74.54;98369.81;110161;1250;66811;-67
2022/05/20 01:35:41;;;;;;;5.50;3.40;;;;;;;5.03;75.06;98364.80;110161;1250;68605;-69
2022/05/20 01:38:13;;;;;;;5.60;4.00;;;;;;;4.98;74.07;98366.19;109957;1250;58882;-68
2022/05/20 01:40:45;;;;;;;7.00;4.50;;;;;;;4.93;74.86;98361.55;109934;1251;58957;-70
2022/05/20 01:44:03;;;;;;;6.10;3.70;;;;;;;4.90;78.91;98361.99;109852;1251;70722;-69
2022/05/20 01:46:59;;;;;;;8.10;4.80;;;;;;;4.85;78.17;98366.13;109931;1250;68573;-72
2022/05/20 01:49:57;;;;;;;7.80;4.70;;;;;;;4.82;79.83;98365.21;110139;1250;68617;-72
2022/05/20 01:52:35;;;;;;;6.90;3.40;;;;;;;4.78;77.89;98362.94;110188;1250;58873;-74
2022/05/20 01:55:20;;;;;;;8.20;4.70;;;;;;;4.74;79.10;98362.02;110217;1250;58941;-73
2022/05/20 01:58:11;;;;;;;6.40;3.60;;;;;;;4.71;80.62;98361.27;110177;1250;69969;-73
2022/05/20 02:00:43;;;;;;;6.80;4.80;;;;;;;4.68;81.48;98356.89;110116;1250;68100;-72
2022/05/20 02:03:29;;;;;;;9.20;5.70;;;;;;;4.68;81.76;98353.80;109964;1249;69247;-75
2022/05/20 02:06:07;;;;;;;7.20;4.50;;;;;;;4.67;81.89;98357.25;110100;1249;58906;-73
2022/05/20 02:08:45;;;;;;;6.80;4.40;;;;;;;4.66;81.34;98359.86;110141;1250;58861;-70
2022/05/20 02:11:24;;;;;;;6.80;3.90;;;;;;;4.62;81.64;98356.21;110191;1250;70771;-70
2022/05/20 02:14:03;;;;;;;9.60;5.00;;;;;;;4.58;80.03;98352.38;109969;1249;68593;-72
2022/05/20 02:16:38;;;;;;;8.10;5.10;;;;;;;4.55;80.58;98354.38;109834;1251;68537;-66
2022/05/20 02:19:33;;;;;;;9.30;5.50;;;;;;;4.53;82.00;98353.59;110157;1249;58887;-69
2022/05/20 02:22:08;;;;;;;5.90;4.50;;;;;;;4.49;80.76;98355.80;110203;1250;58881;-73
2022/05/20 02:24:40;;;;;;;7.20;4.80;;;;;;;4.44;80.48;98352.34;110142;1249;69978;-76
2022/05/20 02:27:22;;;;;;;5.30;3.60;;;;;;;4.41;79.95;98345.37;110223;1248;68434;-75
2022/05/20 02:30:11;;;;;;;7.20;4.30;;;;;;;4.38;81.92;98351.14;109910;1250;68484;-71
2022/05/20 02:32:54;;;;;;;6.80;4.70;;;;;;;4.36;82.16;98355.90;110231;1250;58949;-74
2022/05/20 02:35:25;;;;;;;7.60;5.50;;;;;;;4.34;83.26;98355.94;110175;1250;58893;-76
2022/05/20 02:38:24;;;;;;;8.10;5.10;;;;;;;4.33;83.88;98358.05;110113;1249;69827;-75
2022/05/20 02:40:54;;;;;;;6.80;4.40;;;;;;;4.30;83.96;98362.97;109942;1250;67837;-72
2022/05/20 02:43:24;;;;;;;7.40;4.80;;;;;;;4.28;83.71;98360.63;110159;1248;69294;-70
2022/05/20 02:45:54;;;;;;;5.20;4.60;;;;;;;4.28;84.23;98359.42;110019;1251;58923;-77
2022/05/20 02:48:24;;;;;;;5.90;3.60;;;;;;;4.28;83.88;98361.66;110037;1250;59160;-71
2022/05/20 02:50:53;;;;;;;5.40;4.30;;;;;;;4.28;83.06;98364.41;109980;1250;70767;-69
2022/05/20 02:53:23;;;;;;;6.60;4.90;;;;;;;4.30;84.16;98362.44;109933;1251;67610;-75
2022/05/20 02:55:52;;;;;;;8.00;4.50;;;;;;;4.31;83.39;98357.77;110018;1251;68479;-72
2022/05/20 03:04:10;;;;;;;6.90;5.00;;;;;;;4.32;78.84;98367.73;109941;1251;69025;-69
2022/05/20 03:06:46;;;;;;;7.50;4.80;;;;;;;4.35;81.24;98369.71;110175;1250;67163;-73
2022/05/20 03:09:22;;;;;;;6.80;5.10;;;;;;;4.39;82.19;98373.73;110157;1250;68992;-70
2022/05/20 03:11:52;;;;;;;8.20;5.00;;;;;;;4.45;84.13;98372.67;110123;1250;58902;-72
2022/05/20 03:14:22;;;;;;;6.30;3.90;;;;;;;4.48;83.26;98369.46;110199;1250;58869;-75
2022/05/20 03:16:52;;;;;;;8.00;4.80;;;;;;;4.49;80.67;98366.65;109878;1251;69784;-73
2022/05/20 03:19:22;;;;;;;8.80;5.60;;;;;;;4.48;80.30;98366.02;109997;1250;68562;-73
2022/05/20 03:21:51;;;;;;;7.40;5.00;;;;;;;4.42;82.36;98371.90;109921;1251;68531;-74
2022/05/20 03:24:21;;;;;;;6.80;4.80;;;;;;;4.39;82.18;98369.58;110158;1250;58880;-70
2022/05/20 03:26:52;;;;;;;6.00;4.30;;;;;;;4.39;81.43;98370.10;110232;1247;58872;-68
2022/05/20 03:29:23;;;;;;;6.10;3.80;;;;;;;4.40;80.34;98367.83;109901;1250;70543;-70
2022/05/20 03:31:54;;;;;;;5.80;4.00;;;;;;;4.42;82.48;98370.87;110193;1250;68079;-77
2022/05/20 03:34:27;;;;;;;6.90;4.30;;;;;;;4.45;83.77;98373.70;110171;1250;69462;-68
2022/05/20 03:36:56;;;;;;;9.00;5.10;;;;;;;4.58;84.24;98371.88;109970;1250;58979;-71
2022/05/20 03:39:26;;;;;;;7.90;4.90;;;;;;;4.68;83.72;98371.89;110154;1250;58905;-71
2022/05/20 03:41:56;;;;;;;7.80;5.60;;;;;;;4.84;83.62;98373.78;110193;1250;70572;-74
2022/05/20 03:44:25;;;;;;;;;;;;;;;4.93;82.84;98375.90;109916;1251;68808;-73
2022/05/20 03:46:56;;;;;;;9.60;4.80;;;;;;;4.97;81.96;98381.77;110137;1249;69320;-71
2022/05/20 03:49:28;;;;;;;8.50;5.20;;;;;;;5.03;82.31;98384.51;110207;1250;58942;-71
2022/05/20 03:51:58;;;;;;;8.10;5.40;;;;;;;5.08;81.71;98385.19;110177;1250;58867;-75
2022/05/20 03:54:32;;;;;;;7.10;4.40;;;;;;;5.17;82.44;98386.25;109868;1251;70733;-72
2022/05/20 03:57:03;;;;;;;7.60;5.30;;;;;;;5.28;82.51;98391.75;110141;1250;68038;-73
2022/05/20 03:59:39;;;;;;;9.30;5.80;;;;;;;5.39;82.64;98388.58;109928;1251;68699;-68
2022/05/20 04:02:11;;;;;;;6.50;4.50;;;;;;;5.51;82.07;98393.66;110165;1249;58966;-74
2022/05/20 04:04:48;;;;;;;7.60;5.20;;;;;;;5.61;81.63;98396.77;110177;1249;58894;-74
2022/05/20 04:07:24;;;;;;;9.70;4.90;;;;;;;5.74;81.04;98398.54;110146;1250;70090;-74
2022/05/20 04:09:53;;;;;;;8.60;5.00;;;;;;;5.82;79.94;98401.87;110156;1250;68592;-70
2022/05/20 04:12:33;;;;;;;7.00;4.80;;;;;;;5.86;79.16;98398.73;110108;1250;69397;-72
2022/05/20 04:15:04;;;;;;;10.50;4.70;;;;;;;5.95;78.84;98403.30;110177;1250;58957;-70
2022/05/20 04:17:33;;;;;;;9.30;4.50;;;;;;;6.08;78.73;98399.69;109822;1250;58972;-69
2022/05/20 04:20:05;;;;;;;8.60;5.40;;;;;;;6.26;78.58;98401.56;109897;1250;70856;-72
2022/05/20 04:22:37;;;;;;;8.50;5.00;;;;;;;6.45;78.41;98397.85;109918;1251;67928;-73
2022/05/20 04:25:06;;;;;;;10.30;6.60;;;;;;;6.61;77.60;98396.84;109961;1251;68853;-74
2022/05/20 04:27:35;;;;;;;9.50;5.90;;;;;;;6.76;77.60;98394.15;109987;1251;58961;-72
2022/05/20 04:30:07;;;;;;;7.60;5.60;;;;;;;6.89;77.19;98395.17;109928;1250;58930;-73
2022/05/20 04:32:36;;;;;;;12.10;6.80;;;;;;;7.02;76.74;98396.17;110029;1251;70158;-75
2022/05/20 04:35:06;;;;;;;10.40;5.50;;;;;;;7.14;76.24;98395.34;109976;1251;68545;-71
2022/05/20 04:37:35;;;;;;;7.90;5.50;;;;;;;7.26;76.14;98395.34;110196;1249;69418;-74
2022/05/20 04:40:05;;;;;;;6.60;5.80;;;;;;;7.37;75.61;98393.96;110002;1250;58900;-73
2022/05/20 04:48:12;;;;;;;11.40;5.50;;;;;;;7.83;75.10;98399.51;110151;1249;68492;-76
2022/05/20 04:50:41;;;;;;;10.60;6.40;;;;;;;8.01;74.56;98395.74;109837;1251;68669;-78
2022/05/20 04:54:49;;;;;;;9.20;5.40;;;;;;;8.19;73.80;98393.32;109980;1249;58948;-71
2022/05/20 04:55:59;;;;;;;6.80;5.10;;;;;;;8.37;72.91;98394.58;110161;1250;58918;-67
2022/05/20 04:58:28;;;;;;;7.80;4.90;;;;;;;8.54;72.51;98392.34;110149;1250;69622;-69
2022/05/20 05:00:58;;;;;;;7.50;4.50;;;;;;;8.76;72.56;98391.60;109896;1251;68618;-71
2022/05/20 05:03:27;;;;;;;17.00;5.30;;;;;;;9.06;72.54;98392.40;110173;1249;67735;-75
2022/05/20 05:05:56;;;;;;;6.50;3.50;;;;;;;9.39;68.21;98391.02;110105;1250;58957;-71
2022/05/20 05:08:26;;;;;;;6.10;3.60;;;;;;;9.80;70.22;98391.45;110101;1250;58873;-70
2022/05/20 05:10:55;;;;;;;9.40;6.10;;;;;;;10.27;70.46;98392.33;110155;1250;70859;-74
2022/05/20 05:13:24;;;;;;;4.60;3.30;;;;;;;10.68;69.23;98396.87;110140;1249;68710;-72
2022/05/20 05:15:53;;;;;;;8.00;4.50;;;;;;;11.17;70.13;98399.02;109877;1251;69431;-70
2022/05/20 05:18:25;;;;;;;6.10;3.90;;;;;;;11.63;64.86;98400.94;110121;1250;58958;-71
2022/05/20 05:20:54;;;;;;;6.80;4.30;;;;;;;12.11;64.50;98398.67;110130;1250;58933;-72
2022/05/20 05:23:23;;;;;;;6.30;3.70;;;;;;;12.40;60.40;98399.65;110166;1250;70793;-76
2022/05/20 05:25:52;;;;;;;6.80;4.00;;;;;;;12.48;59.15;98401.23;110128;1250;67801;-73
2022/05/20 05:28:22;;;;;;;7.70;4.90;;;;;;;12.87;57.76;98397.81;110101;1250;69498;-74
2022/05/20 05:30:52;;;;;;;6.70;4.00;;;;;;;13.10;57.42;98399.38;110165;1250;58952;-71
2022/05/20 05:33:21;;;;;;;7.40;4.40;;;;;;;13.28;56.63;98398.37;109964;1250;58849;-73
2022/05/20 05:35:51;;;;;;;7.90;4.60;;;;;;;13.21;55.75;98398.30;110138;1249;70786;-72
2022/05/20 05:38:25;;;;;;;5.10;3.30;;;;;;;13.23;56.28;98397.30;110149;1250;67979;-74
2022/05/20 05:40:54;;;;;;;6.70;4.40;;;;;;;13.15;55.81;98393.30;110175;1249;69330;-74
2022/05/20 05:43:24;;;;;;;7.50;4.50;;;;;;;13.21;55.50;98398.83;110163;1250;58933;-72
2022/05/20 05:45:53;;;;;;;8.90;6.00;;;;;;;13.23;53.79;98394.13;110162;1250;58889;-69
2022/05/20 05:48:22;;;;;;;6.70;4.00;;;;;;;13.31;55.34;98396.09;110163;1250;70899;-73
2022/05/20 05:50:52;;;;;;;8.30;5.30;;;;;;;13.47;55.58;98389.17;110140;1250;69135;-68
2022/05/20 05:53:22;;;;;;;7.50;5.20;;;;;;;13.60;55.01;98391.80;109955;1250;69480;-74
2022/05/20 05:55:58;;;;;;;6.10;3.70;;;;;;;13.73;54.21;98392.60;110178;1248;58868;-71
2022/05/20 05:58:31;;;;;;;5.10;3.50;;;;;;;14.08;55.10;98390.70;110179;1248;58950;-72
2022/05/20 06:01:00;;;;;;;6.00;4.20;;;;;;;14.54;53.49;98387.54;110154;1250;70751;-74
2022/05/20 06:03:29;;;;;;;4.50;3.70;;;;;;;14.95;54.27;98388.03;110136;1250;67255;-73
2022/05/20 06:05:58;;;;;;;;;;;;;;;15.37;51.42;98389.95;110061;1250;69391;-73
2022/05/20 06:08:28;;;;;;;4.80;2.60;;;;;;;15.59;49.76;98387.70;110136;1250;58958;-72
2022/05/20 06:11:01;;;;;;;5.00;3.40;;;;;;;15.99;50.33;98389.64;110137;1250;58897;-73
2022/05/20 06:13:30;;;;;;;3.70;3.10;;;;;;;16.23;48.31;98384.02;110136;1250;70555;-71
2022/05/20 06:15:59;;;;;;;3.40;2.40;;;;;;;16.59;47.96;98384.77;110121;1250;68663;-73
2022/05/20 06:18:29;;;;;;;5.10;2.10;;;;;;;16.94;46.74;98385.44;109914;1250;68978;-69
2022/05/20 06:20:58;;;;;;;3.10;2.30;;;;;;;17.03;44.77;98379.39;109857;1250;58936;-72
2022/05/20 06:23:27;;;;;;;;;;;;;;;17.37;44.88;98381.66;109914;1251;59271;-72
2022/05/20 06:25:57;;;;;;;3.40;2.10;;;;;;;17.39;44.02;98375.32;109382;1250;661608;-73
2022/05/20 06:28:45;;;;;;;4.70;2.70;;;;;;;17.96;44.65;98375.49;109679;1250;68136;-75
2022/05/20 06:31:14;;;;;;;4.70;2.10;;;;;;;18.10;43.76;98374.00;109822;1251;69577;-74
2022/05/20 06:33:44;;;;;;;;;;;;;;;18.15;41.93;98372.23;109892;1250;58961;-72
2022/05/20 06:41:48;;;;;;;4.40;2.10;;;;;;;19.14;40.93;98366.32;109755;1251;68152;-74
2022/05/20 06:44:24;;;;;;;3.40;2.70;;;;;;;19.37;40.01;98368.41;109929;1250;69596;-75
2022/05/20 06:46:53;;;;;;;3.70;2.40;;;;;;;19.15;40.24;98369.33;109939;1250;58876;-75
2022/05/20 06:49:23;;;;;;;3.90;2.40;;;;;;;19.06;39.67;98367.36;109712;1250;58899;-75
2022/05/20 06:51:54;;;;;;;5.30;2.60;;;;;;;18.93;39.71;98364.17;109904;1250;71451;-74
2022/05/20 06:54:23;;;;;;;3.90;2.30;;;;;;;19.09;39.76;98362.56;109820;1251;66869;-75
2022/05/20 06:56:52;;;;;;;3.60;2.50;;;;;;;19.15;40.12;98358.22;109954;1251;69024;-74
2022/05/20 06:59:23;;;;;;;3.90;2.40;;;;;;;19.46;40.06;98368.48;109960;1250;58829;-73
2022/05/20 07:01:54;;;;;;;5.00;2.40;;;;;;;19.85;38.51;98370.73;109871;1250;58922;-72
2022/05/20 07:04:42;;;;;;;3.60;1.80;;;;;;;20.09;37.00;98366.50;109877;1251;69814;-71
2022/05/20 07:07:12;;;;;;;4.10;2.10;;;;;;;20.28;37.86;98365.55;109847;1248;68669;-71
2022/05/20 07:09:41;;;;;;;5.60;2.60;;;;;;;20.75;36.44;98354.73;109722;1251;69469;-71
2022/05/20 07:12:11;;;;;;;3.50;2.30;;;;;;;20.99;36.04;98354.81;109960;1250;58976;-74
2022/05/20 07:14:40;;;;;;;2.70;1.80;;;;;;;20.39;35.93;98352.64;109922;1250;58956;-71
2022/05/20 07:17:18;;;;;;;3.90;2.40;;;;;;;20.30;35.24;98347.42;109902;1251;70101;-71
2022/05/20 07:19:50;;;;;;;3.80;2.40;;;;;;;20.38;35.41;98349.17;109886;1250;67923;-74
2022/05/20 07:22:19;;;;;;;4.40;2.00;;;;;;;20.19;35.21;98346.58;109944;1250;69449;-73
2022/05/20 07:24:48;;;;;;;4.10;2.50;;;;;;;20.35;35.91;98342.59;109979;1250;58853;-74
2022/05/20 07:27:18;;;;;;;4.40;2.80;;;;;;;20.60;34.73;98346.34;109925;1250;58985;-74
2022/05/20 07:29:47;;;;;;;3.30;2.30;;;;;;;20.47;34.81;98346.11;109928;1250;70050;-74
2022/05/20 07:32:16;;;;;;;;;;;;;;;20.55;33.80;98349.84;109928;1250;68729;-72
2022/05/20 07:34:45;;;;;;;3.20;2.30;;;;;;;20.51;33.91;98346.71;109883;1250;68713;-73
2022/05/20 07:37:14;;;;;;;4.00;2.70;;;;;;;20.82;34.43;98342.71;109792;1251;58879;-70
2022/05/20 07:39:43;;;;;;;5.10;2.80;;;;;;;21.31;34.04;98343.44;109946;1250;58897;-74
2022/05/20 07:42:13;;;;;;;5.00;2.20;;;;;;;21.56;32.81;98336.73;109940;1250;70171;-68
2022/05/20 07:44:42;;;;;;;;;;;;;;;21.62;33.10;98337.55;109869;1250;69042;-70
2022/05/20 07:47:11;;;;;;;4.70;2.80;;;;;;;21.49;32.72;98339.95;109814;1250;69575;-72
2022/05/20 07:49:40;;;;;;;3.50;2.40;;;;;;;21.51;32.84;98335.02;109845;1250;58898;-70
2022/05/20 07:52:12;;;;;;;4.00;2.30;;;;;;;21.69;32.42;98338.11;109913;1249;58959;-73
2022/05/20 07:54:44;;;;;;;3.70;2.60;;;;;;;21.70;33.18;98342.27;110008;1250;70655;-73
2022/05/20 07:57:14;;;;;;;3.70;2.40;;;;;;;21.90;32.89;98344.62;109950;1250;68706;-68
2022/05/20 07:59:50;;;;;;;3.80;2.70;;;;;;;22.38;32.79;98342.14;109983;1249;69499;-68
2022/05/20 08:02:29;;;;;;;4.70;2.40;;;;;;;22.37;31.19;98346.95;110088;1250;58950;-71
2022/05/20 08:05:00;;;;;;;3.20;2.20;;;;;;;22.47;32.04;98344.80;110019;1250;58896;-70
2022/05/20 08:07:36;;;;;;;3.50;2.10;;;;;;;22.87;31.26;98340.17;109991;1250;70833;-73
2022/05/20 08:10:10;;;;;;;3.10;2.10;;;;;;;23.11;29.92;98338.52;109843;1250;66885;-70
2022/05/20 08:12:40;;;;;;;4.70;2.60;;;;;;;23.30;30.59;98340.23;109787;1250;68583;-72
2022/05/20 08:15:09;;;;;;;3.30;2.10;;;;;;;23.53;30.62;98335.05;109964;1249;59430;-72
2022/05/20 08:17:40;;;;;;;3.50;2.30;;;;;;;24.04;30.31;98329.30;109979;1250;58933;-67
2022/05/20 08:20:31;;;;;;;3.00;1.90;;;;;;;24.40;28.79;98317.18;109970;1250;70808;-68
2022/05/20 08:23:02;;;;;;;4.60;2.30;;;;;;;24.55;28.54;98317.58;109970;1250;67104;-73
2022/05/20 08:25:30;;;;;;;5.00;2.50;;;;;;;24.56;28.82;98314.71;109777;1250;68549;-75
2022/05/20 08:28:00;;;;;;;3.40;2.00;;;;;;;24.30;27.96;98315.98;109975;1250;58937;-74
2022/05/20 08:30:29;;;;;;;3.10;2.10;;;;;;;23.64;27.84;98318.60;109980;1250;59195;-74
2022/05/20 08:32:58;;;;;;;2.80;2.00;;;;;;;23.20;28.23;98311.80;109985;1250;71546;-74
2022/05/20 08:35:27;;;;;;;2.80;1.60;;;;;;;22.70;28.76;98310.02;110009;1250;67980;-75
2022/05/20 08:37:56;;;;;;;3.80;1.90;;;;;;;22.51;29.14;98306.22;109860;1250;68126;-78
2022/05/20 08:40:29;;;;;;;;;;;;;;;22.76;29.52;98309.47;109934;1250;58895;-78
2022/05/20 08:43:01;;;;;;;2.30;1.90;;;;;;;22.42;29.74;98305.60;109948;1250;58886;-74
2022/05/20 08:45:31;;;;;;;3.20;1.80;;;;;;;22.77;28.59;98300.40;109997;1250;69897;-77
2022/05/20 08:48:11;;;;;;;4.60;2.10;;;;;;;23.08;28.53;98296.80;109718;1250;67911;-78
2022/05/20 08:50:45;;;;;;;2.80;1.60;;;;;;;23.16;28.41;98291.85;109953;1250;68773;-75
2022/05/20 08:53:33;;;;;;;3.50;1.60;;;;;;;23.36;28.60;98287.47;109723;1251;58894;-77
2022/05/20 08:56:07;;;;;;;2.50;1.80;;;;;;;23.65;27.26;98293.23;109830;1251;58901;-74
2022/05/20 08:58:43;;;;;;;3.10;1.80;;;;;;;24.09;27.37;98285.92;109970;1250;71022;-78
2022/05/20 09:01:14;;;;;;;2.80;1.50;;;;;;;24.40;26.73;98283.61;109788;1251;67716;-76
2022/05/20 09:03:43;;;;;;;3.40;1.90;;;;;;;24.21;26.19;98280.98;109962;1250;68721;-75
2022/05/20 09:06:15;;;;;;;3.30;1.50;;;;;;;24.37;26.04;98275.95;109952;1250;59033;-77
2022/05/20 09:09:11;;;;;;;3.10;1.40;;;;;;;24.45;25.23;98274.00;109647;1251;58885;-75
2022/05/20 09:11:44;;;;;;;1.70;1.30;;;;;;;24.32;25.51;98274.21;109963;1251;70834;-77
2022/05/20 09:17:21;;;;;;;2.80;2.00;;;;;;;24.59;24.22;98273.73;109819;1247;69601;-73
2022/05/20 09:20:07;;;;;;;3.50;1.60;;;;;;;24.86;25.16;98274.70;109766;1250;58916;-75
2022/05/20 09:22:39;;;;;;;4.50;1.60;;;;;;;25.29;25.50;98271.67;109895;1250;58955;-74
2022/05/20 09:25:10;;;;;;;3.70;1.80;;;;;;;26.11;24.34;98265.64;110093;1247;70616;-72
2022/05/20 09:27:40;;;;;;;5.00;2.00;;;;;;;26.46;23.28;98258.95;110074;1248;68582;-74
2022/05/20 09:30:12;;;;;;;4.20;2.10;;;;;;;26.49;23.25;98258.23;110079;1249;69375;-72
2022/05/20 09:32:59;;;;;;;3.50;2.10;;;;;;;25.78;23.45;98251.45;110130;1247;58873;-69
2022/05/20 09:35:34;;;;;;;3.70;2.10;;;;;;;25.48;24.27;98246.93;110060;1249;58894;-72
2022/05/20 09:38:30;;;;;;;2.40;1.90;;;;;;;25.73;24.86;98252.91;109989;1250;70560;-76
2022/05/20 09:41:16;;;;;;;3.80;3.20;;;;;;;25.62;25.04;98245.03;109917;1250;68607;-76
2022/05/20 09:43:59;;;;;;;4.60;2.60;;;;;;;26.00;24.31;98237.51;109989;1250;68784;-77
2022/05/20 09:46:40;;;;;;;4.10;3.00;;;;;;;26.41;24.26;98229.98;109842;1249;58943;-76
2022/05/20 09:49:19;;;;;;;3.40;2.00;;;;;;;26.34;24.78;98229.02;110110;1248;58892;-72
2022/05/20 09:51:54;;;;;;;4.30;2.90;;;;;;;26.76;24.34;98236.30;109939;1250;70811;-76
2022/05/20 09:54:35;;;;;;;4.50;3.60;;;;;;;27.17;23.48;98235.98;110123;1249;68668;-67
2022/05/20 09:57:23;;;;;;;4.70;3.30;;;;;;;26.89;21.70;98230.27;110044;1248;68855;-76
2022/05/20 10:00:08;;;;;;;3.70;2.20;;;;;;;26.91;21.55;98228.20;109832;1249;59009;-75
2022/05/20 10:03:14;;;;;;;3.20;1.90;;;;;;;27.40;22.48;98226.98;110200;1248;58834;-78
2022/05/20 10:05:55;;;;;;;3.20;1.90;;;;;;;27.78;20.87;98221.70;110131;1250;70630;-75
2022/05/20 10:08:45;;;;;;;2.50;1.90;;;;;;;28.11;19.88;98213.58;110066;1250;68707;-77
2022/05/20 10:11:29;;;;;;;3.20;1.70;;;;;;;27.27;18.94;98216.86;109858;1250;70134;-78
2022/05/20 10:14:26;;;;;;;2.50;1.80;;;;;;;27.35;19.34;98205.85;109949;1250;58952;-78
2022/05/20 10:16:59;;;;;;;3.40;1.90;;;;;;;27.51;20.95;98199.25;109987;1250;58812;-79
2022/05/20 10:20:00;;;;;;;2.70;1.70;;;;;;;27.71;21.06;98196.83;110063;1249;69993;-78
2022/05/20 10:22:52;;;;;;;3.20;2.10;;;;;;;28.07;19.28;98185.42;109934;1250;69067;-74
2022/05/20 10:25:35;;;;;;;2.50;1.50;;;;;;;27.71;20.67;98190.36;109834;1251;69445;-78
2022/05/20 10:34:37;;;;;;;4.60;2.10;;;;;;;26.99;22.60;98174.64;109875;1250;70979;-79
2022/05/20 10:37:37;;;;;;;3.40;1.70;;;;;;;26.84;22.31;98175.81;109718;1251;69018;-73
2022/05/20 10:40:26;;;;;;;4.10;2.00;;;;;;;26.91;22.09;98173.06;109918;1251;69388;-78
2022/05/20 10:43:16;;;;;;;2.60;1.80;;;;;;;27.05;23.57;98172.98;109954;1250;58924;-75
2022/05/20 10:49:26;;;;;;;3.20;1.80;;;;;;;26.10;22.97;98168.27;109888;1250;70810;-77
2022/05/20 10:52:38;;;;;;;3.90;2.00;;;;;;;26.19;23.08;98164.44;109852;1250;67839;-74
2022/05/20 10:55:27;;;;;;;4.00;2.50;;;;;;;25.96;23.32;98152.83;109726;1250;69765;-72
2022/05/20 10:58:23;;;;;;;2.70;1.90;;;;;;;25.51;23.87;98146.66;109565;1253;59519;-76
2022/05/20 11:00:55;;;;;;;5.30;2.80;;;;;;;25.58;23.71;98143.09;109915;1250;58937;-74
2022/05/20 11:03:35;;;;;;;3.80;2.00;;;;;;;25.57;24.63;98138.09;110018;1250;70688;-72
2022/05/20 11:06:18;;;;;;;3.80;1.90;;;;;;;25.30;24.92;98137.28;109659;1251;68613;-76
2022/05/20 11:09:15;;;;;;;2.30;1.70;;;;;;;25.91;25.47;98136.48;109925;1250;69644;-78
2022/05/20 11:12:05;;;;;;;3.50;1.80;;;;;;;26.36;24.70;98139.09;109871;1250;58894;-74
2022/05/20 11:14:34;;;;;;;;;;;;;;;26.60;23.30;98130.81;110042;1250;58889;-78
2022/05/20 11:17:42;;;;;;;3.70;1.90;;;;;;;26.58;23.83;98129.98;109939;1249;70984;-74
2022/05/20 11:20:34;;;;;;;4.80;2.30;;;;;;;26.57;24.17;98131.20;109974;1250;67918;-76
2022/05/20 11:23:31;;;;;;;3.80;2.00;;;;;;;26.95;23.55;98125.16;109797;1250;69495;-70
2022/05/20 11:26:29;;;;;;;3.50;2.00;;;;;;;27.16;22.47;98112.69;110032;1248;58907;-76
2022/05/20 11:29:36;;;;;;;2.60;1.90;;;;;;;27.81;23.25;98107.80;110005;1250;58887;-76
2022/05/20 11:32:11;;;;;;;6.60;2.40;;;;;;;28.24;22.48;98106.70;109950;1250;70062;-75
2022/05/20 11:34:57;;;;;;;3.80;1.70;;;;;;;27.92;22.02;98102.93;109963;1250;67866;-75
2022/05/20 11:38:04;;;;;;;6.70;2.20;;;;;;;27.85;22.60;98094.33;110084;1250;69498;-75
2022/05/20 11:40:43;;;;;;;3.60;2.10;;;;;;;27.34;21.77;98087.27;109924;1250;58927;-70
2022/05/20 11:43:47;;;;;;;2.50;2.00;;;;;;;26.92;22.35;98081.54;109964;1250;58883;-74
2022/05/20 11:46:56;;;;;;;3.50;1.50;;;;;;;25.86;23.90;98078.96;110000;1250;69922;-72
2022/05/20 11:49:40;;;;;;;2.40;1.80;;;;;;;26.00;24.11;98072.88;109958;1250;68696;-78
2022/05/20 11:52:19;;;;;;;3.10;1.70;;;;;;;26.02;24.31;98072.20;109869;1250;69392;-76
2022/05/20 11:55:16;;;;;;;2.10;1.40;;;;;;;25.79;24.34;98065.55;109898;1250;58827;-72
2022/05/20 11:58:00;;;;;;;2.60;1.10;;;;;;;26.53;24.29;98068.15;110032;1250;58894;-74
2022/05/20 12:00:31;;;;;;;4.10;1.60;;;;;;;26.95;23.92;98064.08;109854;1251;68861;-71
2022/05/20 12:03:05;;;;;;;3.40;1.60;;;;;;;27.13;23.33;98061.03;110066;1250;67868;-71
2022/05/20 12:05:40;;;;;;;2.10;1.50;;;;;;;27.26;23.07;98055.10;110141;1248;68996;-72
2022/05/20 12:08:44;;;;;;;1.60;1.20;;;;;;;27.39;21.64;98056.21;110004;1248;58850;-77
2022/05/20 12:11:35;;;;;;;2.20;1.30;;;;;;;27.46;22.19;98049.54;109880;1250;58949;-75
2022/05/20 12:14:16;;;;;;;2.70;1.30;;;;;;;27.45;21.74;98049.70;110148;1249;70095;-78
2022/05/20 12:16:59;;;;;;;2.50;1.50;;;;;;;27.71;21.82;98044.22;109805;1250;67925;-73
2022/05/20 12:25:45;;;;;;;1.70;1.40;;;;;;;28.21;20.08;98040.74;110071;1250;58834;-76
2022/05/20 12:28:23;;;;;;;2.50;1.70;;;;;;;28.09;20.82;98031.83;109813;1250;71423;-72
2022/05/20 12:31:08;;;;;;;1.30;1.10;;;;;;;27.99;20.48;98033.75;109840;1250;67987;-76
2022/05/20 12:34:00;;;;;;;2.60;1.60;;;;;;;27.99;21.46;98029.77;109961;1250;70105;-74
2022/05/20 12:36:31;;;;;;;1.60;1.20;;;;;;;28.04;20.35;98033.98;110090;1248;58948;-74
2022/05/20 12:39:09;;;;;;;2.90;1.50;;;;;;;28.18;21.24;98035.95;109924;1250;58868;-76
2022/05/20 12:41:55;;;;;;;4.20;1.40;;;;;;;28.15;20.15;98028.23;110204;1248;70022;-76
2022/05/20 12:44:25;;;;;;;2.70;1.60;;;;;;;28.32;21.35;98026.09;110023;1250;68663;-73
2022/05/20 12:47:24;;;;;;;3.40;1.30;;;;;;;28.49;20.49;98016.11;110140;1248;69443;-74
2022/05/20 12:50:19;;;;;;;2.60;1.40;;;;;;;28.48;20.10;98016.61;110141;1249;58909;-74
2022/05/20 12:52:50;;;;;;;3.20;1.30;;;;;;;28.41;19.95;98013.61;110174;1247;58872;-71